sensor_id;sensor_type;location;lat;lon;timestamp;pressure;altitude;pressure_sealevel;temperature;humidity
39487;BME280;25173;50.430;18.926;2024-01-11T00:01:01;99411.28;;;-3.12;48.11
39487;BME280;25173;50.430;18.926;2024-01-11T00:04:01;99395.69;;;-3.25;48.12
39487;BME280;25173;50.430;18.926;2024-01-11T00:07:02;99392.25;;;-3.43;47.83
39487;BME280;25173;50.430;18.926;2024-01-11T00:10:03;99388.97;;;-3.55;48.28
39487;BME280;25173;50.430;18.926;2024-01-11T00:13:03;99387.31;;;-3.56;48.54
39487;BME280;25173;50.430;18.926;2024-01-11T00:16:04;99379.56;;;-3.49;48.62
39487;BME280;25173;50.430;18.926;2024-01-11T00:19:05;99376.41;;;-3.44;48.48
39487;BME280;25173;50.430;18.926;2024-01-11T00:22:05;99361.00;;;-3.59;48.53
39487;BME280;25173;50.430;18.926;2024-01-11T00:25:06;99358.56;;;-3.70;48.87
39487;BME280;25173;50.430;18.926;2024-01-11T00:28:07;99356.94;;;-3.71;49.14
39487;BME280;25173;50.430;18.926;2024-01-11T00:31:08;99352.13;;;-3.67;49.58
39487;BME280;25173;50.430;18.926;2024-01-11T00:34:08;99344.34;;;-3.61;49.65
39487;BME280;25173;50.430;18.926;2024-01-11T00:37:09;99338.41;;;-3.55;49.69
39487;BME280;25173;50.430;18.926;2024-01-11T00:40:09;99332.09;;;-3.54;49.71
39487;BME280;25173;50.430;18.926;2024-01-11T00:43:10;99324.78;;;-3.52;49.81
39487;BME280;25173;50.430;18.926;2024-01-11T00:46:11;99330.09;;;-3.52;49.71
39487;BME280;25173;50.430;18.926;2024-01-11T00:49:12;99342.66;;;-3.44;49.72
39487;BME280;25173;50.430;18.926;2024-01-11T00:52:12;99332.50;;;-3.40;49.58
39487;BME280;25173;50.430;18.926;2024-01-11T00:55:14;99335.66;;;-3.45;49.27
39487;BME280;25173;50.430;18.926;2024-01-11T00:58:16;99331.16;;;-3.44;49.50
39487;BME280;25173;50.430;18.926;2024-01-11T01:01:17;99337.03;;;-3.41;49.73
39487;BME280;25173;50.430;18.926;2024-01-11T01:04:17;99342.56;;;-3.34;49.56
39487;BME280;25173;50.430;18.926;2024-01-11T01:07:18;99342.56;;;-3.34;49.10
39487;BME280;25173;50.430;18.926;2024-01-11T01:10:18;99344.53;;;-3.36;48.86
39487;BME280;25173;50.430;18.926;2024-01-11T01:13:19;99353.97;;;-3.42;48.38
39487;BME280;25173;50.430;18.926;2024-01-11T01:16:20;99342.94;;;-3.47;48.46
39487;BME280;25173;50.430;18.926;2024-01-11T01:19:20;99339.38;;;-3.56;48.14
39487;BME280;25173;50.430;18.926;2024-01-11T01:22:21;99334.38;;;-3.59;48.09
39487;BME280;25173;50.430;18.926;2024-01-11T01:25:21;99327.69;;;-3.63;48.10
39487;BME280;25173;50.430;18.926;2024-01-11T01:28:22;99318.91;;;-3.63;48.18
39487;BME280;25173;50.430;18.926;2024-01-11T01:31:22;99322.69;;;-3.66;48.49
39487;BME280;25173;50.430;18.926;2024-01-11T01:34:23;99319.19;;;-3.66;48.22
39487;BME280;25173;50.430;18.926;2024-01-11T01:37:24;99317.59;;;-3.77;48.61
39487;BME280;25173;50.430;18.926;2024-01-11T01:40:24;99318.00;;;-3.72;48.72
39487;BME280;25173;50.430;18.926;2024-01-11T01:43:25;99310.00;;;-3.72;48.67
39487;BME280;25173;50.430;18.926;2024-01-11T01:46:26;99303.69;;;-3.71;48.82
39487;BME280;25173;50.430;18.926;2024-01-11T01:49:27;99291.38;;;-3.72;49.28
39487;BME280;25173;50.430;18.926;2024-01-11T01:52:28;99289.38;;;-3.70;49.36
39487;BME280;25173;50.430;18.926;2024-01-11T01:55:30;99290.41;;;-3.63;49.58
39487;BME280;25173;50.430;18.926;2024-01-11T01:58:31;99284.78;;;-3.60;49.65
39487;BME280;25173;50.430;18.926;2024-01-11T02:01:32;99294.09;;;-3.64;50.21
39487;BME280;25173;50.430;18.926;2024-01-11T02:04:33;99288.78;;;-3.64;50.40
39487;BME280;25173;50.430;18.926;2024-01-11T02:07:35;99289.06;;;-3.67;50.61
39487;BME280;25173;50.430;18.926;2024-01-11T02:10:35;99292.41;;;-3.65;50.96
39487;BME280;25173;50.430;18.926;2024-01-11T02:13:37;99292.84;;;-3.52;50.79
39487;BME280;25173;50.430;18.926;2024-01-11T02:16:38;99291.94;;;-3.34;50.73
39487;BME280;25173;50.430;18.926;2024-01-11T02:19:38;99277.50;;;-3.24;50.57
39487;BME280;25173;50.430;18.926;2024-01-11T02:22:41;99281.84;;;-3.23;50.60
39487;BME280;25173;50.430;18.926;2024-01-11T02:25:43;99295.22;;;-3.15;50.65
39487;BME280;25173;50.430;18.926;2024-01-11T02:28:46;99293.41;;;-3.06;50.63
39487;BME280;25173;50.430;18.926;2024-01-11T02:31:47;99281.44;;;-3.02;50.76
39487;BME280;25173;50.430;18.926;2024-01-11T02:34:47;99273.13;;;-2.99;50.85
39487;BME280;25173;50.430;18.926;2024-01-11T02:37:49;99270.13;;;-2.96;50.77
39487;BME280;25173;50.430;18.926;2024-01-11T02:40:50;99282.16;;;-2.92;50.68
39487;BME280;25173;50.430;18.926;2024-01-11T02:43:52;99273.50;;;-2.86;50.76
39487;BME280;25173;50.430;18.926;2024-01-11T02:46:53;99283.50;;;-2.80;50.53
39487;BME280;25173;50.430;18.926;2024-01-11T02:49:54;99278.38;;;-2.73;50.58
39487;BME280;25173;50.430;18.926;2024-01-11T02:52:55;99285.75;;;-2.67;50.20
39487;BME280;25173;50.430;18.926;2024-01-11T02:55:55;99278.91;;;-2.69;49.58
39487;BME280;25173;50.430;18.926;2024-01-11T02:58:56;99267.53;;;-2.80;49.36
39487;BME280;25173;50.430;18.926;2024-01-11T03:01:56;99272.66;;;-2.86;49.33
39487;BME280;25173;50.430;18.926;2024-01-11T03:04:57;99269.66;;;-2.91;49.31
39487;BME280;25173;50.430;18.926;2024-01-11T03:07:57;99268.94;;;-3.01;48.98
39487;BME280;25173;50.430;18.926;2024-01-11T03:10:58;99266.94;;;-3.07;49.25
39487;BME280;25173;50.430;18.926;2024-01-11T03:13:58;99257.94;;;-3.06;49.03
39487;BME280;25173;50.430;18.926;2024-01-11T03:16:59;99248.41;;;-3.17;48.91
39487;BME280;25173;50.430;18.926;2024-01-11T03:20:00;99255.00;;;-3.29;49.21
39487;BME280;25173;50.430;18.926;2024-01-11T03:23:00;99249.00;;;-3.31;49.29
39487;BME280;25173;50.430;18.926;2024-01-11T03:26:01;99256.69;;;-3.28;49.61
39487;BME280;25173;50.430;18.926;2024-01-11T03:29:02;99242.84;;;-3.32;48.99
39487;BME280;25173;50.430;18.926;2024-01-11T03:32:02;99238.19;;;-3.30;49.29
39487;BME280;25173;50.430;18.926;2024-01-11T03:35:03;99241.84;;;-3.31;49.50
39487;BME280;25173;50.430;18.926;2024-01-11T03:38:04;99227.84;;;-3.33;49.53
39487;BME280;25173;50.430;18.926;2024-01-11T03:41:09;99238.69;;;-3.34;49.69
39487;BME280;25173;50.430;18.926;2024-01-11T03:44:12;99243.81;;;-3.41;49.60
39487;BME280;25173;50.430;18.926;2024-01-11T03:47:13;99237.28;;;-3.46;49.39
39487;BME280;25173;50.430;18.926;2024-01-11T03:50:13;99229.13;;;-3.45;49.49
39487;BME280;25173;50.430;18.926;2024-01-11T03:53:14;99228.00;;;-3.42;49.33
39487;BME280;25173;50.430;18.926;2024-01-11T03:56:15;99219.50;;;-3.38;49.33
39487;BME280;25173;50.430;18.926;2024-01-11T03:59:15;99206.31;;;-3.47;49.52
39487;BME280;25173;50.430;18.926;2024-01-11T04:02:16;99205.78;;;-3.59;50.09
39487;BME280;25173;50.430;18.926;2024-01-11T04:05:16;99212.41;;;-3.63;50.69
39487;BME280;25173;50.430;18.926;2024-01-11T04:08:17;99217.56;;;-3.62;50.54
39487;BME280;25173;50.430;18.926;2024-01-11T04:11:18;99226.91;;;-3.58;50.60
39487;BME280;25173;50.430;18.926;2024-01-11T04:14:18;99220.41;;;-3.55;49.78
39487;BME280;25173;50.430;18.926;2024-01-11T04:17:19;99221.25;;;-3.55;49.67
39487;BME280;25173;50.430;18.926;2024-01-11T04:20:20;99219.28;;;-3.53;49.57
39487;BME280;25173;50.430;18.926;2024-01-11T04:23:20;99229.44;;;-3.56;49.38
39487;BME280;25173;50.430;18.926;2024-01-11T04:26:21;99227.22;;;-3.61;49.24
39487;BME280;25173;50.430;18.926;2024-01-11T04:29:22;99221.22;;;-3.63;49.36
39487;BME280;25173;50.430;18.926;2024-01-11T04:32:26;99214.25;;;-3.64;50.09
39487;BME280;25173;50.430;18.926;2024-01-11T04:35:30;99213.06;;;-3.61;50.60
39487;BME280;25173;50.430;18.926;2024-01-11T04:38:30;99206.97;;;-3.54;50.97
39487;BME280;25173;50.430;18.926;2024-01-11T04:41:31;99208.66;;;-3.44;51.05
39487;BME280;25173;50.430;18.926;2024-01-11T04:44:32;99213.50;;;-3.40;51.14
39487;BME280;25173;50.430;18.926;2024-01-11T04:47:32;99212.38;;;-3.37;51.58
39487;BME280;25173;50.430;18.926;2024-01-11T04:50:33;99202.06;;;-3.32;51.66
39487;BME280;25173;50.430;18.926;2024-01-11T04:53:38;99209.09;;;-3.23;51.54
39487;BME280;25173;50.430;18.926;2024-01-11T04:56:42;99187.97;;;-3.17;51.74
39487;BME280;25173;50.430;18.926;2024-01-11T04:59:42;99193.00;;;-3.05;51.55
39487;BME280;25173;50.430;18.926;2024-01-11T05:02:43;99183.00;;;-3.03;51.62
39487;BME280;25173;50.430;18.926;2024-01-11T05:05:43;99180.03;;;-3.00;51.66
39487;BME280;25173;50.430;18.926;2024-01-11T05:08:45;99169.19;;;-3.07;51.59
39487;BME280;25173;50.430;18.926;2024-01-11T05:11:46;99174.81;;;-3.10;51.85
39487;BME280;25173;50.430;18.926;2024-01-11T05:14:46;99165.81;;;-3.17;52.04
39487;BME280;25173;50.430;18.926;2024-01-11T05:17:47;99187.09;;;-3.25;52.08
39487;BME280;25173;50.430;18.926;2024-01-11T05:20:48;99199.75;;;-3.27;52.26
39487;BME280;25173;50.430;18.926;2024-01-11T05:23:48;99201.06;;;-3.31;52.18
39487;BME280;25173;50.430;18.926;2024-01-11T05:26:49;99184.41;;;-3.41;52.21
39487;BME280;25173;50.430;18.926;2024-01-11T05:29:50;99163.91;;;-3.49;52.38
39487;BME280;25173;50.430;18.926;2024-01-11T05:32:50;99168.69;;;-3.53;52.60
39487;BME280;25173;50.430;18.926;2024-01-11T05:35:51;99162.72;;;-3.46;52.70
39487;BME280;25173;50.430;18.926;2024-01-11T05:38:53;99158.41;;;-3.39;52.38
39487;BME280;25173;50.430;18.926;2024-01-11T05:41:54;99162.09;;;-3.32;52.57
39487;BME280;25173;50.430;18.926;2024-01-11T05:44:55;99149.78;;;-3.33;52.41
39487;BME280;25173;50.430;18.926;2024-01-11T05:47:55;99144.97;;;-3.30;52.44
39487;BME280;25173;50.430;18.926;2024-01-11T05:50:56;99164.31;;;-3.28;52.39
39487;BME280;25173;50.430;18.926;2024-01-11T05:53:56;99168.41;;;-3.33;52.20
39487;BME280;25173;50.430;18.926;2024-01-11T05:56:57;99162.59;;;-3.37;52.43
39487;BME280;25173;50.430;18.926;2024-01-11T05:59:59;99153.94;;;-3.39;52.35
39487;BME280;25173;50.430;18.926;2024-01-11T06:03:00;99161.56;;;-3.44;52.32
39487;BME280;25173;50.430;18.926;2024-01-11T06:06:01;99172.38;;;-3.45;52.50
39487;BME280;25173;50.430;18.926;2024-01-11T06:09:02;99166.38;;;-3.47;52.45
39487;BME280;25173;50.430;18.926;2024-01-11T06:12:05;99151.69;;;-3.60;52.41
39487;BME280;25173;50.430;18.926;2024-01-11T06:15:06;99157.31;;;-3.63;52.69
39487;BME280;25173;50.430;18.926;2024-01-11T06:18:07;99156.00;;;-3.67;52.74
39487;BME280;25173;50.430;18.926;2024-01-11T06:21:08;99140.66;;;-3.73;52.81
39487;BME280;25173;50.430;18.926;2024-01-11T06:24:08;99133.66;;;-3.74;52.96
39487;BME280;25173;50.430;18.926;2024-01-11T06:27:09;99101.94;;;-3.59;52.89
39487;BME280;25173;50.430;18.926;2024-01-11T06:30:10;99102.81;;;-3.50;52.73
39487;BME280;25173;50.430;18.926;2024-01-11T06:33:10;99089.03;;;-3.38;52.77
39487;BME280;25173;50.430;18.926;2024-01-11T06:36:11;99100.56;;;-3.21;52.40
39487;BME280;25173;50.430;18.926;2024-01-11T06:39:11;99089.56;;;-3.10;52.26
39487;BME280;25173;50.430;18.926;2024-01-11T06:42:13;99096.59;;;-3.01;52.15
39487;BME280;25173;50.430;18.926;2024-01-11T06:45:13;99078.25;;;-2.96;52.06
39487;BME280;25173;50.430;18.926;2024-01-11T06:48:14;99084.78;;;-2.90;51.84
39487;BME280;25173;50.430;18.926;2024-01-11T06:51:21;99085.13;;;-2.85;51.82
39487;BME280;25173;50.430;18.926;2024-01-11T06:54:22;99085.94;;;-2.77;51.88
39487;BME280;25173;50.430;18.926;2024-01-11T06:57:22;99067.63;;;-2.71;51.73
39487;BME280;25173;50.430;18.926;2024-01-11T07:00:23;99076.97;;;-2.76;51.69
39487;BME280;25173;50.430;18.926;2024-01-11T07:03:24;99072.28;;;-2.74;51.81
39487;BME280;25173;50.430;18.926;2024-01-11T07:06:26;99055.63;;;-2.59;52.15
39487;BME280;25173;50.430;18.926;2024-01-11T07:09:26;99080.56;;;-2.44;51.97
39487;BME280;25173;50.430;18.926;2024-01-11T07:12:27;99076.75;;;-2.33;51.51
39487;BME280;25173;50.430;18.926;2024-01-11T07:15:27;99090.59;;;-2.30;51.65
39487;BME280;25173;50.430;18.926;2024-01-11T07:18:28;99091.91;;;-2.26;51.51
39487;BME280;25173;50.430;18.926;2024-01-11T07:21:29;99104.88;;;-2.15;51.88
39487;BME280;25173;50.430;18.926;2024-01-11T07:24:30;99114.19;;;-1.94;51.60
39487;BME280;25173;50.430;18.926;2024-01-11T07:27:37;99110.09;;;-1.74;51.59
39487;BME280;25173;50.430;18.926;2024-01-11T07:30:38;99108.84;;;-1.56;51.83
39487;BME280;25173;50.430;18.926;2024-01-11T07:33:40;99095.25;;;-1.38;51.58
39487;BME280;25173;50.430;18.926;2024-01-11T07:36:40;99079.31;;;-1.23;51.28
39487;BME280;25173;50.430;18.926;2024-01-11T07:39:41;99078.91;;;-1.12;51.21
39487;BME280;25173;50.430;18.926;2024-01-11T07:42:42;99058.94;;;-1.01;50.90
39487;BME280;25173;50.430;18.926;2024-01-11T07:45:43;99049.78;;;-0.84;51.14
39487;BME280;25173;50.430;18.926;2024-01-11T07:48:44;99043.94;;;-0.65;50.90
39487;BME280;25173;50.430;18.926;2024-01-11T07:51:44;99033.16;;;-0.57;50.60
39487;BME280;25173;50.430;18.926;2024-01-11T07:54:45;99026.81;;;-0.56;50.47
39487;BME280;25173;50.430;18.926;2024-01-11T07:57:46;99023.31;;;-0.42;50.70
39487;BME280;25173;50.430;18.926;2024-01-11T08:00:47;99025.19;;;-0.27;50.50
39487;BME280;25173;50.430;18.926;2024-01-11T08:03:50;99026.09;;;-0.20;49.48
39487;BME280;25173;50.430;18.926;2024-01-11T08:06:52;99021.13;;;-0.23;50.01
39487;BME280;25173;50.430;18.926;2024-01-11T08:09:53;99020.84;;;-0.14;49.88
39487;BME280;25173;50.430;18.926;2024-01-11T08:12:54;99020.47;;;-0.11;49.77
39487;BME280;25173;50.430;18.926;2024-01-11T08:15:55;99003.41;;;0.05;49.61
39487;BME280;25173;50.430;18.926;2024-01-11T08:18:57;99008.00;;;0.11;49.50
39487;BME280;25173;50.430;18.926;2024-01-11T08:21:58;99011.59;;;0.18;49.30
39487;BME280;25173;50.430;18.926;2024-01-11T08:24:59;98997.38;;;0.18;49.03
39487;BME280;25173;50.430;18.926;2024-01-11T08:27:59;99002.53;;;0.19;48.79
39487;BME280;25173;50.430;18.926;2024-01-11T08:31:00;99005.59;;;0.16;48.55
39487;BME280;25173;50.430;18.926;2024-01-11T08:34:01;99014.94;;;0.06;48.00
39487;BME280;25173;50.430;18.926;2024-01-11T08:37:01;99019.63;;;0.04;48.13
39487;BME280;25173;50.430;18.926;2024-01-11T08:40:03;99034.69;;;0.05;47.81
39487;BME280;25173;50.430;18.926;2024-01-11T08:43:06;99046.16;;;0.13;48.19
39487;BME280;25173;50.430;18.926;2024-01-11T08:46:07;99035.03;;;0.16;47.55
39487;BME280;25173;50.430;18.926;2024-01-11T08:49:07;99025.34;;;0.15;47.96
39487;BME280;25173;50.430;18.926;2024-01-11T08:52:08;99028.78;;;0.09;46.83
39487;BME280;25173;50.430;18.926;2024-01-11T08:55:09;99034.22;;;0.01;47.53
39487;BME280;25173;50.430;18.926;2024-01-11T08:58:10;99026.28;;;-0.07;47.36
39487;BME280;25173;50.430;18.926;2024-01-11T09:01:11;99026.00;;;-0.12;47.80
39487;BME280;25173;50.430;18.926;2024-01-11T09:04:11;99030.72;;;-0.14;47.72
39487;BME280;25173;50.430;18.926;2024-01-11T09:07:13;99036.44;;;-0.17;47.65
39487;BME280;25173;50.430;18.926;2024-01-11T09:10:15;99053.25;;;-0.23;47.60
39487;BME280;25173;50.430;18.926;2024-01-11T09:13:16;99051.09;;;-0.28;47.78
39487;BME280;25173;50.430;18.926;2024-01-11T09:16:16;99039.03;;;-0.38;47.43
39487;BME280;25173;50.430;18.926;2024-01-11T09:19:17;99031.75;;;-0.30;48.09
39487;BME280;25173;50.430;18.926;2024-01-11T09:22:18;99050.94;;;-0.12;48.44
39487;BME280;25173;50.430;18.926;2024-01-11T09:25:18;99043.66;;;-0.03;48.13
39487;BME280;25173;50.430;18.926;2024-01-11T09:28:19;99030.34;;;0.04;47.91
39487;BME280;25173;50.430;18.926;2024-01-11T09:31:19;99026.81;;;0.18;48.04
39487;BME280;25173;50.430;18.926;2024-01-11T09:34:20;99019.88;;;0.23;47.54
39487;BME280;25173;50.430;18.926;2024-01-11T09:37:20;99021.00;;;0.29;47.95
39487;BME280;25173;50.430;18.926;2024-01-11T09:40:21;99026.44;;;0.35;47.88
39487;BME280;25173;50.430;18.926;2024-01-11T09:43:23;99012.41;;;0.33;47.78
39487;BME280;25173;50.430;18.926;2024-01-11T09:46:25;99006.03;;;0.34;47.88
39487;BME280;25173;50.430;18.926;2024-01-11T09:49:26;99007.75;;;0.42;48.02
39487;BME280;25173;50.430;18.926;2024-01-11T09:52:28;98995.19;;;0.43;48.01
39487;BME280;25173;50.430;18.926;2024-01-11T09:55:29;98991.38;;;0.52;48.26
39487;BME280;25173;50.430;18.926;2024-01-11T09:58:29;98988.56;;;0.60;48.20
39487;BME280;25173;50.430;18.926;2024-01-11T10:01:31;98973.13;;;0.62;48.18
39487;BME280;25173;50.430;18.926;2024-01-11T10:04:31;98967.41;;;0.65;48.56
39487;BME280;25173;50.430;18.926;2024-01-11T10:07:32;98977.09;;;0.66;48.64
39487;BME280;25173;50.430;18.926;2024-01-11T10:10:34;98971.81;;;0.72;48.63
39487;BME280;25173;50.430;18.926;2024-01-11T10:13:35;98968.53;;;0.77;48.65
39487;BME280;25173;50.430;18.926;2024-01-11T10:16:36;98968.34;;;0.78;48.58
39487;BME280;25173;50.430;18.926;2024-01-11T10:19:37;98959.28;;;0.80;49.05
39487;BME280;25173;50.430;18.926;2024-01-11T10:22:37;98963.56;;;0.95;49.06
39487;BME280;25173;50.430;18.926;2024-01-11T10:25:39;98953.59;;;0.89;48.55
39487;BME280;25173;50.430;18.926;2024-01-11T10:28:39;98957.03;;;0.83;48.87
39487;BME280;25173;50.430;18.926;2024-01-11T10:31:40;98947.22;;;0.90;49.19
39487;BME280;25173;50.430;18.926;2024-01-11T10:34:41;98964.22;;;1.04;48.77
39487;BME280;25173;50.430;18.926;2024-01-11T10:37:43;98965.72;;;1.06;48.45
39487;BME280;25173;50.430;18.926;2024-01-11T10:40:44;98955.22;;;1.11;48.75
39487;BME280;25173;50.430;18.926;2024-01-11T10:43:45;98947.44;;;1.16;48.30
39487;BME280;25173;50.430;18.926;2024-01-11T10:46:48;98935.09;;;1.22;48.49
39487;BME280;25173;50.430;18.926;2024-01-11T10:49:50;98925.44;;;1.28;48.33
39487;BME280;25173;50.430;18.926;2024-01-11T10:56:33;98936.56;;;1.25;48.20
39487;BME280;25173;50.430;18.926;2024-01-11T10:59:36;98934.56;;;1.33;48.50
39487;BME280;25173;50.430;18.926;2024-01-11T11:02:38;98939.19;;;1.46;48.34
39487;BME280;25173;50.430;18.926;2024-01-11T11:05:40;98933.03;;;1.52;47.86
39487;BME280;25173;50.430;18.926;2024-01-11T11:08:41;98927.72;;;1.65;48.59
39487;BME280;25173;50.430;18.926;2024-01-11T11:11:42;98918.31;;;1.82;48.17
39487;BME280;25173;50.430;18.926;2024-01-11T11:14:44;98899.78;;;1.94;48.50
39487;BME280;25173;50.430;18.926;2024-01-11T11:17:45;98906.81;;;2.02;47.91
39487;BME280;25173;50.430;18.926;2024-01-11T11:20:47;98910.59;;;2.14;48.11
39487;BME280;25173;50.430;18.926;2024-01-11T11:23:49;98906.50;;;2.31;48.27
39487;BME280;25173;50.430;18.926;2024-01-11T11:26:49;98904.91;;;2.43;48.38
39487;BME280;25173;50.430;18.926;2024-01-11T11:29:50;98908.22;;;2.52;47.75
39487;BME280;25173;50.430;18.926;2024-01-11T11:32:51;98895.19;;;2.55;47.97
39487;BME280;25173;50.430;18.926;2024-01-11T11:35:53;98888.78;;;2.69;47.47
39487;BME280;25173;50.430;18.926;2024-01-11T11:38:58;98894.59;;;2.66;46.74
39487;BME280;25173;50.430;18.926;2024-01-11T11:42:01;98879.25;;;2.67;47.66
39487;BME280;25173;50.430;18.926;2024-01-11T11:45:02;98859.41;;;2.61;46.95
39487;BME280;25173;50.430;18.926;2024-01-11T11:51:28;98870.59;;;2.52;47.34
39487;BME280;25173;50.430;18.926;2024-01-11T11:54:29;98864.56;;;2.43;47.59
39487;BME280;25173;50.430;18.926;2024-01-11T11:57:30;98877.38;;;2.41;47.74
39487;BME280;25173;50.430;18.926;2024-01-11T12:00:31;98867.47;;;2.35;47.49
39487;BME280;25173;50.430;18.926;2024-01-11T12:03:35;98865.16;;;2.25;47.37
39487;BME280;25173;50.430;18.926;2024-01-11T12:06:37;98850.69;;;2.33;48.17
39487;BME280;25173;50.430;18.926;2024-01-11T12:09:38;98859.81;;;2.45;48.01
39487;BME280;25173;50.430;18.926;2024-01-11T12:12:39;98852.38;;;2.47;47.89
39487;BME280;25173;50.430;18.926;2024-01-11T12:15:40;98851.97;;;2.37;47.88
39487;BME280;25173;50.430;18.926;2024-01-11T12:18:41;98857.53;;;2.29;47.63
39487;BME280;25173;50.430;18.926;2024-01-11T12:21:42;98854.41;;;2.25;47.95
39487;BME280;25173;50.430;18.926;2024-01-11T12:24:42;98852.16;;;2.29;47.99
39487;BME280;25173;50.430;18.926;2024-01-11T12:27:44;98848.19;;;2.25;48.05
39487;BME280;25173;50.430;18.926;2024-01-11T12:30:45;98851.69;;;2.19;47.99
39487;BME280;25173;50.430;18.926;2024-01-11T12:33:47;98856.84;;;2.07;47.91
39487;BME280;25173;50.430;18.926;2024-01-11T12:36:49;98853.94;;;2.09;48.39
39487;BME280;25173;50.430;18.926;2024-01-11T12:39:49;98837.63;;;2.17;48.56
39487;BME280;25173;50.430;18.926;2024-01-11T12:42:56;98826.69;;;2.25;48.52
39487;BME280;25173;50.430;18.926;2024-01-11T12:45:57;98823.38;;;2.23;48.27
39487;BME280;25173;50.430;18.926;2024-01-11T12:48:58;98823.59;;;2.21;48.37
39487;BME280;25173;50.430;18.926;2024-01-11T12:51:59;98812.25;;;2.26;48.42
39487;BME280;25173;50.430;18.926;2024-01-11T12:54:59;98806.66;;;2.14;48.46
39487;BME280;25173;50.430;18.926;2024-01-11T12:58:04;98790.72;;;2.06;48.61
39487;BME280;25173;50.430;18.926;2024-01-11T13:01:06;98792.78;;;2.11;48.80
39487;BME280;25173;50.430;18.926;2024-01-11T13:04:10;98782.03;;;1.98;48.94
39487;BME280;25173;50.430;18.926;2024-01-11T13:07:12;98780.56;;;2.02;49.08
39487;BME280;25173;50.430;18.926;2024-01-11T13:10:16;98782.22;;;2.03;49.00
39487;BME280;25173;50.430;18.926;2024-01-11T13:13:17;98777.47;;;1.98;49.19
39487;BME280;25173;50.430;18.926;2024-01-11T13:16:17;98773.13;;;1.90;48.92
39487;BME280;25173;50.430;18.926;2024-01-11T13:19:19;98775.81;;;1.84;49.21
39487;BME280;25173;50.430;18.926;2024-01-11T13:22:19;98791.50;;;1.87;49.63
39487;BME280;25173;50.430;18.926;2024-01-11T13:25:20;98781.56;;;1.87;49.40
39487;BME280;25173;50.430;18.926;2024-01-11T13:28:21;98784.25;;;1.87;49.42
39487;BME280;25173;50.430;18.926;2024-01-11T13:31:21;98783.22;;;1.75;49.52
39487;BME280;25173;50.430;18.926;2024-01-11T13:34:22;98790.41;;;1.62;49.63
39487;BME280;25173;50.430;18.926;2024-01-11T13:37:23;98776.88;;;1.42;49.90
39487;BME280;25173;50.430;18.926;2024-01-11T13:40:24;98787.22;;;1.38;50.00
39487;BME280;25173;50.430;18.926;2024-01-11T13:43:24;98784.25;;;1.27;50.29
39487;BME280;25173;50.430;18.926;2024-01-11T13:46:25;98781.34;;;1.22;50.46
39487;BME280;25173;50.430;18.926;2024-01-11T13:49:25;98784.50;;;1.32;50.69
39487;BME280;25173;50.430;18.926;2024-01-11T13:52:26;98783.06;;;1.36;50.46
39487;BME280;25173;50.430;18.926;2024-01-11T13:55:27;98775.22;;;1.41;50.73
39487;BME280;25173;50.430;18.926;2024-01-11T13:58:27;98779.41;;;1.56;50.42
39487;BME280;25173;50.430;18.926;2024-01-11T14:01:28;98767.63;;;1.51;50.14
39487;BME280;25173;50.430;18.926;2024-01-11T14:04:29;98774.06;;;1.56;50.43
39487;BME280;25173;50.430;18.926;2024-01-11T14:07:29;98781.53;;;1.68;50.28
39487;BME280;25173;50.430;18.926;2024-01-11T14:10:31;98788.59;;;1.75;50.34
39487;BME280;25173;50.430;18.926;2024-01-11T14:13:35;98788.16;;;1.78;50.36
39487;BME280;25173;50.430;18.926;2024-01-11T14:16:35;98789.78;;;1.66;50.66
39487;BME280;25173;50.430;18.926;2024-01-11T14:19:36;98792.00;;;1.49;51.20
39487;BME280;25173;50.430;18.926;2024-01-11T14:22:37;98786.59;;;1.43;51.31
39487;BME280;25173;50.430;18.926;2024-01-11T14:25:37;98784.53;;;1.38;51.37
39487;BME280;25173;50.430;18.926;2024-01-11T14:28:38;98783.47;;;1.33;51.69
39487;BME280;25173;50.430;18.926;2024-01-11T14:31:42;98791.75;;;1.38;51.76
39487;BME280;25173;50.430;18.926;2024-01-11T14:34:43;98803.72;;;1.42;51.85
39487;BME280;25173;50.430;18.926;2024-01-11T14:37:47;98813.69;;;1.48;51.79
39487;BME280;25173;50.430;18.926;2024-01-11T14:40:47;98814.94;;;1.52;51.88
39487;BME280;25173;50.430;18.926;2024-01-11T14:43:48;98812.22;;;1.45;52.29
39487;BME280;25173;50.430;18.926;2024-01-11T14:46:49;98831.38;;;1.36;52.97
39487;BME280;25173;50.430;18.926;2024-01-11T14:49:49;98824.31;;;1.28;53.61
39487;BME280;25173;50.430;18.926;2024-01-11T14:52:50;98836.91;;;1.34;53.93
39487;BME280;25173;50.430;18.926;2024-01-11T14:55:50;98837.19;;;1.39;54.32
39487;BME280;25173;50.430;18.926;2024-01-11T14:58:51;98844.59;;;1.37;55.04
39487;BME280;25173;50.430;18.926;2024-01-11T15:01:51;98842.81;;;1.16;56.49
39487;BME280;25173;50.430;18.926;2024-01-11T15:04:52;98849.13;;;1.02;56.81
39487;BME280;25173;50.430;18.926;2024-01-11T15:07:53;98839.81;;;0.98;56.99
39487;BME280;25173;50.430;18.926;2024-01-11T15:10:55;98836.06;;;0.93;57.83
39487;BME280;25173;50.430;18.926;2024-01-11T15:13:56;98836.03;;;0.86;58.29
39487;BME280;25173;50.430;18.926;2024-01-11T15:16:56;98827.75;;;0.81;58.42
39487;BME280;25173;50.430;18.926;2024-01-11T15:19:57;98832.69;;;0.84;58.76
39487;BME280;25173;50.430;18.926;2024-01-11T15:22:58;98826.97;;;0.87;58.95
39487;BME280;25173;50.430;18.926;2024-01-11T15:25:58;98823.19;;;0.82;59.22
39487;BME280;25173;50.430;18.926;2024-01-11T15:28:59;98823.72;;;0.70;59.82
39487;BME280;25173;50.430;18.926;2024-01-11T15:32:00;98824.94;;;0.68;59.96
39487;BME280;25173;50.430;18.926;2024-01-11T15:35:00;98826.41;;;0.70;60.01
39487;BME280;25173;50.430;18.926;2024-01-11T15:38:01;98830.94;;;0.70;59.88
39487;BME280;25173;50.430;18.926;2024-01-11T15:41:02;98827.38;;;0.63;60.17
39487;BME280;25173;50.430;18.926;2024-01-11T15:44:03;98841.16;;;0.60;60.60
39487;BME280;25173;50.430;18.926;2024-01-11T15:47:04;98841.94;;;0.54;60.80
39487;BME280;25173;50.430;18.926;2024-01-11T15:50:05;98843.41;;;0.56;60.49
39487;BME280;25173;50.430;18.926;2024-01-11T15:53:09;98852.16;;;0.65;60.52
39487;BME280;25173;50.430;18.926;2024-01-11T15:56:09;98846.19;;;0.69;60.46
39487;BME280;25173;50.430;18.926;2024-01-11T15:59:10;98840.78;;;0.63;60.78